Pagina principale
METAR-TAF:

METAR-TAF

Aeroporti :

Luxeuil-les-Bains, Francia

latitudine: 47-47N, longitudine: 006-21E, altezza: 278 m

Osservazione

Il bollettino è stato emesso 12 minuti fa, alle 16:00 UTC
Vento 3 kt da ovest/sud-ovest
Temperature 14°C
Umidità 47%
Pressione 1028 hPa
Visibilità 10 km o più
nessuna nube inferiore a 1500 m e nessun cumulonembo

METAR: LFSX 231600Z AUTO 25003KT CAVOK 14/03 Q1028 NOSIG

Ora: 18:12 (16:12 UTC)

Previsione

Il bollettino è stato emesso 2 ore e 12 minuti fa, alle 14:00 UTC
Previsione valida dal 23 alle 15 UTC al 24 alle 15 UTC
Vento 7 kt da ovest/nord-ovest
Visibilità 10 km o più
nessuna nube inferiore a 1500 m e nessun cumulonembo
Temporaneamente
dal 24 alle 00 UTC al 24 alle 07 UTC
Visibilità: 3000 m
Nuvoloso ad un'altezza di 300 ft
foschia
Probabilità 40%
dal 24 alle 00 UTC al 24 alle 07 UTC
Visibilità: 0300 m
nebbia

TAF: LFSX 231400Z 2315/2415 29007KT CAVOK TEMPO 2400/2407 3000 BR BKN003 PROB40 2400/2407 0300 FG

Osservazioni e previsioni meteorologiche di più di 4000 aeroporti (messaggi METAR e TAF).

Le stazioni disponibili sono rappresentate dai dischi gialli e rossi sulla carta.

Puntare il mouse per vedere il nome della stazione.

Clicca sopra per visualizzare le osservazioni e previsioni meteorologiche.

Per cambiare la mappa : fare clic sui pulsanti verdi con una croce nera per ingrandire, il pulsante verde con un trattino per diminuire, o sulla freccia verde per le mappe adiacenti.


METAR-TAF: